createdAt,value
2023-05-08T00:00:21.637Z,53.94
2023-05-08T00:03:58.592Z,54.07
2023-05-08T00:07:27.573Z,54.31
2023-05-08T00:10:54.962Z,54.39
2023-05-08T00:14:22.267Z,54.34
2023-05-08T00:17:49.447Z,54.57
2023-05-08T00:21:19.693Z,54.59
2023-05-08T00:24:47.978Z,54.72
2023-05-08T00:28:14.916Z,54.86
2023-05-08T00:31:44.492Z,55.06
2023-05-08T00:35:12.575Z,55.02
2023-05-08T00:38:40.394Z,55.13
2023-05-08T00:42:07.750Z,55.27
2023-05-08T00:45:38.440Z,55.39
2023-05-08T00:49:07.222Z,55.28
2023-05-08T00:52:35.827Z,55.14
2023-05-08T00:56:03.158Z,55.33
2023-05-08T00:59:30.516Z,55.21
2023-05-08T01:02:58.105Z,55.45
2023-05-08T01:06:25.154Z,55.40
2023-05-08T01:09:52.746Z,55.46
2023-05-08T01:13:30.431Z,55.47
2023-05-08T01:17:11.179Z,55.66
2023-05-08T01:20:47.461Z,55.64
2023-05-08T01:24:42.259Z,55.81
2023-05-08T01:28:23.676Z,55.88
2023-05-08T01:32:17.439Z,55.83
2023-05-08T01:35:51.838Z,55.87
2023-05-08T01:39:24.004Z,56.07
2023-05-08T01:42:57.975Z,55.98
2023-05-08T01:46:30.270Z,56.13
2023-05-08T01:50:07.535Z,56.06
2023-05-08T01:53:39.935Z,56.18
2023-05-08T01:57:10.862Z,56.33
2023-05-08T02:00:40.298Z,56.44
2023-05-08T02:04:10.074Z,56.51
2023-05-08T02:07:39.304Z,56.50
2023-05-08T02:11:08.301Z,56.72
2023-05-08T02:14:37.377Z,56.56
2023-05-08T02:18:06.230Z,56.57
2023-05-08T02:21:35.184Z,56.69
2023-05-08T02:25:02.930Z,56.88
2023-05-08T02:28:31.822Z,57.05
2023-05-08T02:32:02.665Z,56.98
2023-05-08T02:35:32.481Z,57.06
2023-05-08T02:39:01.615Z,56.92
2023-05-08T02:42:29.100Z,56.99
2023-05-08T02:46:04.983Z,57.15
2023-05-08T02:49:48.296Z,57.10
2023-05-08T02:53:22.137Z,56.97
2023-05-08T02:56:57.303Z,57.01
2023-05-08T03:00:31.229Z,57.04
2023-05-08T03:04:05.140Z,57.46
2023-05-08T03:07:34.378Z,57.21
2023-05-08T03:11:05.644Z,57.61
2023-05-08T03:14:37.697Z,57.54
2023-05-08T03:18:09.312Z,57.51
2023-05-08T03:21:37.897Z,57.57
2023-05-08T03:25:07.734Z,57.63
2023-05-08T03:28:37.345Z,57.86
2023-05-08T03:32:05.780Z,57.89
2023-05-08T03:35:33.884Z,58.04
2023-05-08T03:39:03.516Z,57.83
2023-05-08T03:42:32.563Z,57.96
2023-05-08T03:46:02.679Z,58.10
2023-05-08T03:49:31.610Z,58.25
2023-05-08T03:52:59.564Z,58.20
2023-05-08T03:56:27.440Z,58.30
2023-05-08T04:00:02.720Z,58.48
2023-05-08T04:03:56.270Z,58.60
2023-05-08T04:07:30.303Z,58.68
2023-05-08T04:11:07.485Z,58.82
2023-05-08T04:14:39.579Z,58.73
2023-05-08T04:18:10.417Z,59.25
2023-05-08T04:21:41.240Z,59.08
2023-05-08T04:25:10.700Z,59.25
2023-05-08T04:28:39.261Z,59.22
2023-05-08T04:32:09.455Z,59.54
2023-05-08T04:35:37.710Z,59.54
2023-05-08T04:39:05.421Z,59.87
2023-05-08T04:42:33.661Z,59.95
2023-05-08T04:46:01.858Z,59.74
2023-05-08T04:49:29.648Z,60.12
2023-05-08T04:52:57.503Z,60.41
2023-05-08T04:56:25.043Z,60.71
2023-05-08T04:59:51.613Z,60.94
2023-05-08T05:03:19.902Z,61.08
2023-05-08T05:06:47.037Z,61.50
2023-05-08T05:10:14.180Z,61.37
2023-05-08T05:13:41.567Z,61.63
2023-05-08T05:17:08.797Z,61.60
2023-05-08T05:20:36.712Z,61.60
2023-05-08T05:24:04.207Z,61.95
2023-05-08T05:27:31.659Z,61.43
2023-05-08T05:30:58.959Z,60.95
2023-05-08T05:34:25.808Z,61.00
2023-05-08T05:37:53.697Z,60.95
2023-05-08T05:41:22.560Z,61.04
2023-05-08T05:44:49.530Z,60.59
2023-05-08T05:48:17.062Z,60.22
2023-05-08T05:51:45.091Z,59.94
2023-05-08T05:55:13.475Z,59.71
2023-05-08T05:58:44.967Z,59.31
2023-05-08T06:02:17.727Z,59.14
2023-05-08T06:05:45.966Z,58.60
2023-05-08T06:09:13.551Z,58.46
2023-05-08T06:12:40.778Z,58.38
2023-05-08T06:16:09.313Z,58.45
2023-05-08T06:19:38.403Z,58.31
2023-05-08T06:23:05.670Z,57.97
2023-05-08T06:26:33.512Z,57.87
2023-05-08T06:30:00.781Z,57.54
2023-05-08T06:33:27.981Z,57.38
2023-05-08T06:36:54.862Z,57.27
2023-05-08T06:40:22.345Z,57.31
2023-05-08T06:43:49.332Z,57.35
2023-05-08T06:47:17.100Z,57.27
2023-05-08T06:50:44.786Z,57.09
2023-05-08T06:54:11.663Z,56.65
2023-05-08T06:57:39.151Z,56.48
2023-05-08T07:01:06.472Z,56.38
2023-05-08T07:04:33.868Z,56.17
2023-05-08T07:08:01.670Z,56.23
2023-05-08T07:11:28.985Z,56.00
2023-05-08T07:14:56.649Z,55.83
2023-05-08T07:18:25.286Z,55.85
2023-05-08T07:21:53.232Z,55.74
2023-05-08T07:25:20.289Z,55.55
2023-05-08T07:28:48.775Z,55.39
2023-05-08T07:32:15.685Z,55.39
2023-05-08T07:35:43.889Z,55.11
2023-05-08T07:39:12.867Z,54.94
2023-05-08T07:42:44.107Z,55.08
2023-05-08T07:46:17.892Z,54.71
2023-05-08T07:49:44.926Z,54.77
2023-05-08T07:53:11.576Z,54.73
2023-05-08T07:56:38.790Z,54.88
2023-05-08T08:00:06.771Z,54.78
2023-05-08T08:03:40.406Z,54.89
2023-05-08T08:07:07.553Z,54.48
2023-05-08T08:10:35.340Z,54.42
2023-05-08T08:14:02.162Z,54.37
2023-05-08T08:17:29.167Z,53.99
2023-05-08T08:20:56.566Z,54.00
2023-05-08T08:24:25.133Z,53.94
2023-05-08T08:27:52.155Z,53.97
2023-05-08T08:31:20.341Z,53.86
2023-05-08T08:34:47.122Z,53.50
2023-05-08T08:38:14.556Z,53.08
2023-05-08T08:41:42.756Z,52.84
2023-05-08T08:45:12.804Z,52.88
2023-05-08T08:48:45.071Z,52.50
2023-05-08T08:52:18.847Z,52.46
2023-05-08T08:55:50.130Z,52.33
2023-05-08T08:59:19.592Z,52.35
2023-05-08T09:02:46.715Z,52.22
2023-05-08T09:06:15.311Z,52.03
2023-05-08T09:09:44.677Z,51.97
2023-05-08T09:13:11.776Z,51.53
2023-05-08T09:16:40.459Z,51.56
2023-05-08T09:20:08.955Z,51.45
2023-05-08T09:23:36.943Z,51.01
2023-05-08T09:27:05.757Z,50.91
2023-05-08T09:30:33.207Z,50.73
2023-05-08T09:34:02.703Z,51.05
2023-05-08T09:37:34.250Z,50.75
2023-05-08T09:41:16.215Z,50.46
2023-05-08T09:44:51.675Z,49.86
2023-05-08T09:48:19.517Z,49.18
2023-05-08T09:51:55.098Z,48.93
2023-05-08T09:55:22.532Z,48.89
2023-05-08T09:58:49.840Z,48.62
2023-05-08T10:02:17.673Z,48.53
2023-05-08T10:05:47.668Z,48.27
2023-05-08T10:09:16.390Z,48.03
2023-05-08T10:12:43.945Z,47.53
2023-05-08T10:16:17.088Z,47.22
2023-05-08T10:19:47.660Z,47.02
2023-05-08T10:23:19.356Z,47.26
2023-05-08T10:27:05.648Z,46.87
2023-05-08T10:30:36.054Z,47.02
2023-05-08T10:34:05.274Z,46.99
2023-05-08T10:37:38.307Z,46.56
2023-05-08T10:41:05.973Z,46.32
2023-05-08T10:44:33.326Z,45.90
2023-05-08T10:48:15.609Z,45.69
2023-05-08T10:51:49.248Z,45.86
2023-05-08T10:55:29.909Z,45.50
2023-05-08T10:59:01.183Z,45.43
2023-05-08T11:02:37.235Z,45.12
2023-05-08T11:06:04.412Z,45.31
2023-05-08T11:09:47.172Z,45.50
2023-05-08T11:13:17.678Z,45.68
2023-05-08T11:17:07.039Z,45.42
2023-05-08T11:20:44.325Z,45.30
2023-05-08T11:24:17.386Z,44.88
2023-05-08T11:28:14.204Z,44.78
2023-05-08T11:31:56.489Z,44.12
2023-05-08T11:35:44.436Z,44.35
2023-05-08T11:39:15.896Z,44.33
2023-05-08T11:42:42.553Z,44.19
2023-05-08T11:46:17.864Z,43.95
2023-05-08T11:49:45.009Z,43.61
2023-05-08T11:53:12.200Z,43.63
2023-05-08T11:56:41.550Z,43.59
2023-05-08T12:00:11.488Z,43.79
2023-05-08T12:03:38.795Z,43.82
2023-05-08T12:07:07.385Z,43.40
2023-05-08T12:10:34.137Z,43.35
2023-05-08T12:14:01.399Z,42.86
2023-05-08T12:17:28.776Z,42.88
2023-05-08T12:20:58.659Z,42.37
2023-05-08T12:24:27.073Z,42.34
2023-05-08T12:27:53.774Z,41.89
2023-05-08T12:31:21.337Z,41.78
2023-05-08T12:34:48.684Z,41.38
2023-05-08T12:38:16.443Z,41.77
2023-05-08T12:41:50.321Z,41.91
2023-05-08T12:45:21.883Z,41.42
2023-05-08T12:48:49.922Z,41.22
2023-05-08T12:52:18.273Z,40.90
2023-05-08T12:55:55.019Z,40.45
2023-05-08T12:59:33.510Z,40.10
2023-05-08T13:03:05.108Z,39.85
2023-05-08T13:06:32.094Z,39.86
2023-05-08T13:10:05.038Z,40.04
2023-05-08T13:13:33.940Z,40.17
2023-05-08T13:17:01.142Z,40.00
2023-05-08T13:20:28.812Z,39.85
2023-05-08T13:23:56.987Z,39.64
2023-05-08T13:27:24.938Z,39.08
2023-05-08T13:30:52.271Z,38.88
2023-05-08T13:34:22.107Z,38.72
2023-05-08T13:37:50.205Z,38.56
2023-05-08T13:41:17.702Z,38.27
2023-05-08T13:44:44.884Z,37.69
2023-05-08T13:48:12.468Z,37.37
2023-05-08T13:51:39.890Z,37.64
2023-05-08T13:55:08.447Z,37.31
2023-05-08T13:58:35.634Z,37.41
2023-05-08T14:02:02.637Z,37.19
2023-05-08T14:05:29.460Z,37.08
2023-05-08T14:08:57.327Z,36.96
2023-05-08T14:12:24.602Z,36.58
2023-05-08T14:15:51.941Z,36.49
2023-05-08T14:19:19.082Z,36.17
2023-05-08T14:22:47.265Z,36.08
2023-05-08T14:26:14.544Z,35.94
2023-05-08T14:29:42.228Z,35.31
2023-05-08T14:33:10.029Z,35.23
2023-05-08T14:36:36.862Z,35.02
2023-05-08T14:40:04.391Z,35.07
2023-05-08T14:43:33.585Z,34.54
2023-05-08T14:47:04.505Z,34.63
2023-05-08T14:50:31.460Z,34.59
2023-05-08T14:53:59.029Z,34.27
2023-05-08T14:57:25.983Z,34.09
2023-05-08T15:00:52.757Z,34.09
2023-05-08T15:04:19.752Z,33.92
2023-05-08T15:07:46.930Z,33.58
2023-05-08T15:11:14.016Z,33.66
2023-05-08T15:14:41.310Z,33.55
2023-05-08T15:18:08.362Z,33.40
2023-05-08T15:21:35.508Z,33.44
2023-05-08T15:25:03.362Z,33.38
2023-05-08T15:28:33.411Z,33.00
2023-05-08T15:32:00.803Z,33.20
2023-05-08T15:35:28.154Z,33.06
2023-05-08T15:38:54.934Z,32.94
2023-05-08T15:42:22.112Z,32.90
2023-05-08T15:45:49.573Z,32.80
2023-05-08T15:49:16.845Z,32.74
2023-05-08T15:52:43.600Z,32.94
2023-05-08T15:56:11.383Z,33.06
2023-05-08T15:59:40.080Z,33.13
2023-05-08T16:03:07.517Z,33.17
2023-05-08T16:06:35.146Z,33.21
2023-05-08T16:10:02.228Z,33.18
2023-05-08T16:13:30.064Z,33.16
2023-05-08T16:16:57.704Z,33.25
2023-05-08T16:20:24.800Z,33.22
2023-05-08T16:23:51.864Z,33.22
2023-05-08T16:27:19.133Z,33.39
2023-05-08T16:30:45.874Z,33.56
2023-05-08T16:34:12.762Z,33.53
2023-05-08T16:37:39.546Z,33.68
2023-05-08T16:41:07.497Z,33.76
2023-05-08T16:44:36.351Z,33.64
2023-05-08T16:48:03.156Z,33.75
2023-05-08T16:51:30.191Z,33.74
2023-05-08T16:54:56.958Z,33.87
2023-05-08T16:58:23.942Z,33.95
2023-05-08T17:01:50.678Z,34.04
2023-05-08T17:05:19.377Z,34.11
2023-05-08T17:08:50.688Z,34.13
2023-05-08T17:12:17.854Z,34.26
2023-05-08T17:15:45.032Z,34.41
2023-05-08T17:19:12.295Z,34.53
2023-05-08T17:22:40.941Z,34.64
2023-05-08T17:26:16.140Z,34.73
2023-05-08T17:29:45.907Z,34.86
2023-05-08T17:33:13.852Z,34.88
2023-05-08T17:36:41.886Z,35.01
2023-05-08T17:40:11.623Z,35.17
2023-05-08T17:43:38.703Z,35.35
2023-05-08T17:47:05.958Z,35.57
2023-05-08T17:50:43.731Z,35.63
2023-05-08T17:54:11.193Z,35.89
2023-05-08T17:57:39.117Z,36.09
2023-05-08T18:01:09.513Z,36.34
2023-05-08T18:04:37.373Z,36.58
2023-05-08T18:08:05.361Z,36.58
2023-05-08T18:11:33.036Z,36.79
2023-05-08T18:15:01.176Z,36.86
2023-05-08T18:18:29.035Z,37.05
2023-05-08T18:21:58.708Z,37.16
2023-05-08T18:25:27.114Z,37.15
2023-05-08T18:28:54.661Z,37.42
2023-05-08T18:32:22.954Z,37.57
2023-05-08T18:35:51.275Z,37.80
2023-05-08T18:39:18.709Z,37.89
2023-05-08T18:42:45.830Z,37.92
2023-05-08T18:46:15.042Z,38.25
2023-05-08T18:49:42.021Z,38.38
2023-05-08T18:53:11.228Z,38.40
2023-05-08T18:56:39.323Z,38.48
2023-05-08T19:00:10.126Z,38.95
2023-05-08T19:03:37.576Z,39.08
2023-05-08T19:07:06.813Z,39.09
2023-05-08T19:10:34.431Z,39.36
2023-05-08T19:14:10.612Z,39.75
2023-05-08T19:17:38.979Z,39.81
2023-05-08T19:21:06.782Z,40.01
2023-05-08T19:24:34.514Z,40.34
2023-05-08T19:28:04.620Z,40.41
2023-05-08T19:31:34.455Z,40.62
2023-05-08T19:35:04.142Z,40.81
2023-05-08T19:38:31.151Z,41.30
2023-05-08T19:41:59.593Z,41.24
2023-05-08T19:45:27.060Z,41.75
2023-05-08T19:48:54.073Z,41.77
2023-05-08T19:52:21.628Z,42.07
2023-05-08T19:55:49.868Z,41.97
2023-05-08T19:59:20.369Z,42.33
2023-05-08T20:02:47.845Z,42.65
2023-05-08T20:06:15.530Z,42.75
2023-05-08T20:09:42.679Z,42.98
2023-05-08T20:13:11.384Z,43.21
2023-05-08T20:16:39.954Z,43.37
2023-05-08T20:20:09.080Z,43.59
2023-05-08T20:23:41.542Z,43.60
2023-05-08T20:27:09.339Z,43.89
2023-05-08T20:30:44.354Z,43.75
2023-05-08T20:34:11.509Z,43.94
2023-05-08T20:37:47.395Z,44.15
2023-05-08T20:41:16.596Z,44.25
2023-05-08T20:44:44.734Z,44.33
2023-05-08T20:48:12.345Z,44.66
2023-05-08T20:51:40.622Z,44.58
2023-05-08T20:55:10.170Z,44.71
2023-05-08T20:58:37.088Z,44.83
2023-05-08T21:02:04.221Z,44.97
2023-05-08T21:05:31.310Z,45.03
2023-05-08T21:08:58.860Z,45.06
2023-05-08T21:12:29.091Z,45.25
2023-05-08T21:15:58.643Z,45.35
2023-05-08T21:19:25.406Z,45.58
2023-05-08T21:22:52.756Z,45.69
2023-05-08T21:26:23.887Z,45.67
2023-05-08T21:29:51.027Z,45.91
2023-05-08T21:33:18.101Z,46.01
2023-05-08T21:36:45.182Z,46.41
2023-05-08T21:40:13.873Z,46.54
2023-05-08T21:43:40.912Z,46.44
2023-05-08T21:47:11.766Z,46.56
2023-05-08T21:50:40.468Z,47.09
2023-05-08T21:54:08.709Z,46.89
2023-05-08T21:57:39.974Z,47.07
2023-05-08T22:01:07.773Z,47.23
2023-05-08T22:04:34.923Z,47.04
2023-05-08T22:08:04.796Z,47.44
2023-05-08T22:11:35.344Z,47.54
2023-05-08T22:15:02.699Z,47.89
2023-05-08T22:18:30.035Z,47.67
2023-05-08T22:21:58.374Z,48.13
2023-05-08T22:25:27.130Z,48.05
2023-05-08T22:28:54.114Z,48.25
2023-05-08T22:32:21.569Z,48.44
2023-05-08T22:35:48.272Z,48.36
2023-05-08T22:39:15.277Z,48.94
2023-05-08T22:42:42.463Z,48.62
2023-05-08T22:46:10.613Z,48.93
2023-05-08T22:49:37.828Z,48.92
2023-05-08T22:53:08.420Z,48.87
2023-05-08T22:56:36.088Z,49.12
2023-05-08T23:00:03.294Z,49.13
2023-05-08T23:03:34.418Z,49.12
2023-05-08T23:07:03.520Z,49.36
2023-05-08T23:10:31.448Z,49.53
2023-05-08T23:13:58.616Z,49.55
2023-05-08T23:17:25.647Z,49.50
2023-05-08T23:20:52.484Z,49.74
2023-05-08T23:24:20.025Z,49.97
2023-05-08T23:27:46.689Z,49.91
2023-05-08T23:31:13.959Z,50.04
2023-05-08T23:34:43.603Z,50.07
2023-05-08T23:38:10.650Z,50.44
2023-05-08T23:41:39.029Z,50.35
2023-05-08T23:45:07.960Z,50.56
2023-05-08T23:48:35.145Z,50.68
2023-05-08T23:52:01.750Z,50.76
2023-05-08T23:55:29.570Z,51.09
2023-05-08T23:58:57.195Z,51.01
